sensor_id;sensor_type;location;lat;lon;timestamp;pressure;altitude;pressure_sealevel;temperature;humidity
75933;BME280;64803;52.356;5.310;2023-04-01T00:00:54;99337.94;;;9.81;100.00
75933;BME280;64803;52.356;5.310;2023-04-01T00:03:22;99351.34;;;9.81;100.00
75933;BME280;64803;52.356;5.310;2023-04-01T00:05:49;99329.09;;;9.74;100.00
75933;BME280;64803;52.356;5.310;2023-04-01T00:08:15;99343.28;;;9.81;100.00
75933;BME280;64803;52.356;5.310;2023-04-01T00:10:41;99338.34;;;9.78;100.00
75933;BME280;64803;52.356;5.310;2023-04-01T00:13:07;99341.47;;;9.69;100.00
75933;BME280;64803;52.356;5.310;2023-04-01T00:15:34;99354.84;;;9.75;100.00
75933;BME280;64803;52.356;5.310;2023-04-01T00:18:00;99351.13;;;9.76;100.00
75933;BME280;64803;52.356;5.310;2023-04-01T00:20:27;99360.00;;;9.77;100.00
75933;BME280;64803;52.356;5.310;2023-04-01T00:22:53;99349.91;;;9.72;100.00
75933;BME280;64803;52.356;5.310;2023-04-01T00:25:19;99348.66;;;9.75;100.00
75933;BME280;64803;52.356;5.310;2023-04-01T00:27:45;99355.88;;;9.74;100.00
75933;BME280;64803;52.356;5.310;2023-04-01T00:30:11;99352.59;;;9.72;100.00
75933;BME280;64803;52.356;5.310;2023-04-01T00:32:37;99354.66;;;9.70;100.00
75933;BME280;64803;52.356;5.310;2023-04-01T00:35:04;99352.97;;;9.69;100.00
75933;BME280;64803;52.356;5.310;2023-04-01T00:37:30;99351.97;;;9.70;100.00
75933;BME280;64803;52.356;5.310;2023-04-01T00:39:57;99351.97;;;9.70;100.00
75933;BME280;64803;52.356;5.310;2023-04-01T00:42:23;99356.28;;;9.71;100.00
75933;BME280;64803;52.356;5.310;2023-04-01T00:44:54;99361.03;;;9.69;100.00
75933;BME280;64803;52.356;5.310;2023-04-01T00:47:22;99356.09;;;9.66;100.00
75933;BME280;64803;52.356;5.310;2023-04-01T00:49:51;99363.34;;;9.66;100.00
75933;BME280;64803;52.356;5.310;2023-04-01T00:52:21;99363.94;;;9.61;100.00
75933;BME280;64803;52.356;5.310;2023-04-01T00:54:51;99366.00;;;9.59;100.00
75933;BME280;64803;52.356;5.310;2023-04-01T00:57:22;99364.34;;;9.58;100.00
75933;BME280;64803;52.356;5.310;2023-04-01T00:59:52;99371.78;;;9.56;100.00
75933;BME280;64803;52.356;5.310;2023-04-01T01:02:19;99369.31;;;9.55;100.00
75933;BME280;64803;52.356;5.310;2023-04-01T01:04:46;99377.13;;;9.56;100.00
75933;BME280;64803;52.356;5.310;2023-04-01T01:12:34;99372.59;;;9.50;100.00
75933;BME280;64803;52.356;5.310;2023-04-01T01:18:04;99373.84;;;9.48;100.00
75933;BME280;64803;52.356;5.310;2023-04-01T01:34:51;99379.22;;;9.41;100.00
75933;BME280;64803;52.356;5.310;2023-04-01T01:37:22;99388.88;;;9.42;100.00
75933;BME280;64803;52.356;5.310;2023-04-01T01:39:54;99386.84;;;9.38;100.00
75933;BME280;64803;52.356;5.310;2023-04-01T01:42:22;99382.28;;;9.32;100.00
75933;BME280;64803;52.356;5.310;2023-04-01T01:44:51;99387.66;;;9.32;100.00
75933;BME280;64803;52.356;5.310;2023-04-01T01:47:20;99391.38;;;9.31;100.00
75933;BME280;64803;52.356;5.310;2023-04-01T01:49:48;99387.44;;;9.33;100.00
75933;BME280;64803;52.356;5.310;2023-04-01T01:52:16;99389.91;;;9.28;100.00
75933;BME280;64803;52.356;5.310;2023-04-01T01:54:50;99399.38;;;9.24;100.00
75933;BME280;64803;52.356;5.310;2023-04-01T01:57:18;99392.38;;;9.23;100.00
75933;BME280;64803;52.356;5.310;2023-04-01T01:59:49;99402.28;;;9.29;100.00
75933;BME280;64803;52.356;5.310;2023-04-01T02:02:25;99395.28;;;9.28;100.00
75933;BME280;64803;52.356;5.310;2023-04-01T02:04:52;99404.16;;;9.29;100.00
75933;BME280;64803;52.356;5.310;2023-04-01T02:07:22;99404.75;;;9.31;100.00
75933;BME280;64803;52.356;5.310;2023-04-01T02:09:50;99405.56;;;9.31;100.00
75933;BME280;64803;52.356;5.310;2023-04-01T02:12:19;99411.75;;;9.25;100.00
75933;BME280;64803;52.356;5.310;2023-04-01T02:14:54;99388.03;;;9.09;100.00
75933;BME280;64803;52.356;5.310;2023-04-01T02:17:29;99413.41;;;9.26;100.00
75933;BME280;64803;52.356;5.310;2023-04-01T02:19:59;99412.59;;;9.26;100.00
75933;BME280;64803;52.356;5.310;2023-04-01T02:22:48;99414.22;;;9.27;100.00
75933;BME280;64803;52.356;5.310;2023-04-01T02:25:18;99394.22;;;9.03;100.00
75933;BME280;64803;52.356;5.310;2023-04-01T02:27:46;99419.78;;;9.25;100.00
75933;BME280;64803;52.356;5.310;2023-04-01T02:30:14;99425.78;;;9.27;100.00
75933;BME280;64803;52.356;5.310;2023-04-01T02:32:41;99424.75;;;9.28;100.00
75933;BME280;64803;52.356;5.310;2023-04-01T02:35:10;99428.84;;;9.24;100.00
75933;BME280;64803;52.356;5.310;2023-04-01T02:37:38;99432.78;;;9.28;100.00
75933;BME280;64803;52.356;5.310;2023-04-01T02:40:05;99424.75;;;9.28;100.00
75933;BME280;64803;52.356;5.310;2023-04-01T02:42:33;99432.16;;;9.26;100.00
75933;BME280;64803;52.356;5.310;2023-04-01T02:44:59;99431.13;;;9.27;100.00
75933;BME280;64803;52.356;5.310;2023-04-01T02:47:26;99426.19;;;9.31;100.00
75933;BME280;64803;52.356;5.310;2023-04-01T02:49:52;99427.84;;;9.32;100.00
75933;BME280;64803;52.356;5.310;2023-04-01T02:52:28;99438.97;;;9.35;100.00
75933;BME280;64803;52.356;5.310;2023-04-01T02:54:55;99444.31;;;9.35;100.00
75933;BME280;64803;52.356;5.310;2023-04-01T02:57:22;99436.06;;;9.30;100.00
75933;BME280;64803;52.356;5.310;2023-04-01T02:59:48;99444.75;;;9.32;100.00
75933;BME280;64803;52.356;5.310;2023-04-01T03:02:14;99448.03;;;9.34;100.00
75933;BME280;64803;52.356;5.310;2023-04-01T03:04:41;99447.84;;;9.36;100.00
75933;BME280;64803;52.356;5.310;2023-04-01T03:07:07;99452.56;;;9.34;100.00
75933;BME280;64803;52.356;5.310;2023-04-01T03:09:34;99458.13;;;9.32;100.00
75933;BME280;64803;52.356;5.310;2023-04-01T03:12:00;99454.63;;;9.38;100.00
75933;BME280;64803;52.356;5.310;2023-04-01T03:14:26;99461.66;;;9.39;100.00
75933;BME280;64803;52.356;5.310;2023-04-01T03:16:52;99465.75;;;9.35;100.00
75933;BME280;64803;52.356;5.310;2023-04-01T03:19:19;99462.03;;;9.30;100.00
75933;BME280;64803;52.356;5.310;2023-04-01T03:21:45;99476.88;;;9.32;100.00
75933;BME280;64803;52.356;5.310;2023-04-01T03:24:11;99475.63;;;9.28;100.00
75933;BME280;64803;52.356;5.310;2023-04-01T03:26:37;99473.59;;;9.30;100.00
75933;BME280;64803;52.356;5.310;2023-04-01T03:29:03;99473.16;;;9.20;100.00
75933;BME280;64803;52.356;5.310;2023-04-01T03:31:29;99485.34;;;9.29;100.00
75933;BME280;64803;52.356;5.310;2023-04-01T03:33:57;99489.66;;;9.30;100.00
75933;BME280;64803;52.356;5.310;2023-04-01T03:36:23;99488.00;;;9.29;100.00
75933;BME280;64803;52.356;5.310;2023-04-01T03:38:49;99492.97;;;9.32;100.00
75933;BME280;64803;52.356;5.310;2023-04-01T03:41:21;99495.44;;;9.34;100.00
75933;BME280;64803;52.356;5.310;2023-04-01T03:43:47;99497.47;;;9.32;100.00
75933;BME280;64803;52.356;5.310;2023-04-01T03:46:18;99499.94;;;9.33;100.00
75933;BME280;64803;52.356;5.310;2023-04-01T03:48:44;99504.69;;;9.31;100.00
75933;BME280;64803;52.356;5.310;2023-04-01T03:51:10;99504.94;;;9.36;100.00
75933;BME280;64803;52.356;5.310;2023-04-01T03:53:36;99510.66;;;9.33;100.00
75933;BME280;64803;52.356;5.310;2023-04-01T03:56:06;99511.09;;;9.37;100.00
75933;BME280;64803;52.356;5.310;2023-04-01T03:58:35;99512.53;;;9.33;100.00
75933;BME280;64803;52.356;5.310;2023-04-01T04:01:02;99516.44;;;9.37;100.00
75933;BME280;64803;52.356;5.310;2023-04-01T04:03:29;99523.84;;;9.35;100.00
75933;BME280;64803;52.356;5.310;2023-04-01T04:05:55;99515.66;;;9.36;100.00
75933;BME280;64803;52.356;5.310;2023-04-01T04:08:22;99522.22;;;9.40;100.00
75933;BME280;64803;52.356;5.310;2023-04-01T04:10:54;99509.44;;;9.29;100.00
75933;BME280;64803;52.356;5.310;2023-04-01T04:13:20;99537.88;;;9.43;100.00
75933;BME280;64803;52.356;5.310;2023-04-01T04:15:53;99538.53;;;9.45;100.00
75933;BME280;64803;52.356;5.310;2023-04-01T04:18:19;99537.09;;;9.49;100.00
75933;BME280;64803;52.356;5.310;2023-04-01T04:20:46;99546.78;;;9.50;100.00
75933;BME280;64803;52.356;5.310;2023-04-01T04:23:17;99551.13;;;9.51;100.00
75933;BME280;64803;52.356;5.310;2023-04-01T04:25:58;99550.72;;;9.54;100.00
75933;BME280;64803;52.356;5.310;2023-04-01T04:28:26;99561.44;;;9.54;100.00
75933;BME280;64803;52.356;5.310;2023-04-01T04:30:54;99558.31;;;9.51;100.00
75933;BME280;64803;52.356;5.310;2023-04-01T04:33:21;99568.44;;;9.55;100.00
75933;BME280;64803;52.356;5.310;2023-04-01T04:35:48;99578.97;;;9.57;100.00
75933;BME280;64803;52.356;5.310;2023-04-01T04:38:15;99581.03;;;9.55;100.00
75933;BME280;64803;52.356;5.310;2023-04-01T04:40:41;99578.94;;;9.50;100.00
75933;BME280;64803;52.356;5.310;2023-04-01T04:43:13;99585.94;;;9.51;100.00
75933;BME280;64803;52.356;5.310;2023-04-01T04:45:40;99590.47;;;9.51;100.00
75933;BME280;64803;52.356;5.310;2023-04-01T04:48:11;99595.00;;;9.50;100.00
75933;BME280;64803;52.356;5.310;2023-04-01T04:50:42;99592.31;;;9.50;100.00
75933;BME280;64803;52.356;5.310;2023-04-01T04:53:12;99590.69;;;9.49;100.00
75933;BME280;64803;52.356;5.310;2023-04-01T04:55:44;99598.72;;;9.49;100.00
75933;BME280;64803;52.356;5.310;2023-04-01T04:58:19;99608.41;;;9.50;100.00
75933;BME280;64803;52.356;5.310;2023-04-01T05:00:46;99613.75;;;9.50;100.00
75933;BME280;64803;52.356;5.310;2023-04-01T05:03:19;99608.81;;;9.47;100.00
75933;BME280;64803;52.356;5.310;2023-04-01T05:05:50;99618.13;;;9.51;100.00
75933;BME280;64803;52.356;5.310;2023-04-01T05:08:17;99622.84;;;9.49;100.00
75933;BME280;64803;52.356;5.310;2023-04-01T05:10:43;99625.75;;;9.54;100.00
75933;BME280;64803;52.356;5.310;2023-04-01T05:13:09;99628.63;;;9.53;100.00
75933;BME280;64803;52.356;5.310;2023-04-01T05:15:36;99637.50;;;9.53;100.00
75933;BME280;64803;52.356;5.310;2023-04-01T05:18:03;99638.50;;;9.52;100.00
75933;BME280;64803;52.356;5.310;2023-04-01T05:20:29;99647.59;;;9.51;100.00
75933;BME280;64803;52.356;5.310;2023-04-01T05:22:56;99656.91;;;9.55;100.00
75933;BME280;64803;52.356;5.310;2023-04-01T05:25:22;99651.69;;;9.47;100.00
75933;BME280;64803;52.356;5.310;2023-04-01T05:27:48;99660.59;;;9.54;100.00
75933;BME280;64803;52.356;5.310;2023-04-01T05:30:14;99658.72;;;9.55;100.00
75933;BME280;64803;52.356;5.310;2023-04-01T05:32:59;99669.47;;;9.55;100.00
75933;BME280;64803;52.356;5.310;2023-04-01T05:35:25;99662.03;;;9.57;100.00
75933;BME280;64803;52.356;5.310;2023-04-01T05:37:51;99675.66;;;9.55;100.00
75933;BME280;64803;52.356;5.310;2023-04-01T05:40:17;99670.28;;;9.55;100.00
75933;BME280;64803;52.356;5.310;2023-04-01T05:42:44;99678.94;;;9.57;100.00
75933;BME280;64803;52.356;5.310;2023-04-01T05:45:10;99682.66;;;9.56;100.00
75933;BME280;64803;52.356;5.310;2023-04-01T05:47:59;99680.41;;;9.60;100.00
75933;BME280;64803;52.356;5.310;2023-04-01T05:50:25;99694.22;;;9.63;100.00
75933;BME280;64803;52.356;5.310;2023-04-01T05:52:52;99692.59;;;9.62;100.00
75933;BME280;64803;52.356;5.310;2023-04-01T05:55:18;99707.84;;;9.62;100.00
75933;BME280;64803;52.356;5.310;2023-04-01T05:57:46;99702.63;;;9.54;100.00
75933;BME280;64803;52.356;5.310;2023-04-01T06:00:12;99703.88;;;9.58;100.00
75933;BME280;64803;52.356;5.310;2023-04-01T06:02:40;99713.19;;;9.55;100.00
75933;BME280;64803;52.356;5.310;2023-04-01T06:07:39;99716.41;;;9.44;100.00
75933;BME280;64803;52.356;5.310;2023-04-01T06:10:12;99724.44;;;9.44;100.00
75933;BME280;64803;52.356;5.310;2023-04-01T06:12:49;99734.53;;;9.42;100.00
75933;BME280;64803;52.356;5.310;2023-04-01T06:15:25;99732.44;;;9.38;100.00
75933;BME280;64803;52.356;5.310;2023-04-01T06:23:09;99760.69;;;9.40;100.00
75933;BME280;64803;52.356;5.310;2023-04-01T06:28:22;99755.56;;;9.45;100.00
75933;BME280;64803;52.356;5.310;2023-04-01T06:34:13;99773.53;;;9.51;100.00
75933;BME280;64803;52.356;5.310;2023-04-01T06:51:19;99787.22;;;9.69;100.00
75933;BME280;64803;52.356;5.310;2023-04-01T06:54:11;99794.47;;;9.69;100.00
75933;BME280;64803;52.356;5.310;2023-04-01T06:57:02;99799.84;;;9.69;100.00
75933;BME280;64803;52.356;5.310;2023-04-01T06:59:33;99808.50;;;9.71;100.00
75933;BME280;64803;52.356;5.310;2023-04-01T07:04:58;99811.34;;;9.69;100.00
75933;BME280;64803;52.356;5.310;2023-04-01T07:10:13;99827.03;;;9.66;100.00
75933;BME280;64803;52.356;5.310;2023-04-01T07:13:21;99831.56;;;9.65;100.00
75933;BME280;64803;52.356;5.310;2023-04-01T07:16:07;99833.41;;;9.65;100.00
75933;BME280;64803;52.356;5.310;2023-04-01T07:18:50;99838.00;;;9.71;100.00
75933;BME280;64803;52.356;5.310;2023-04-01T07:21:31;99851.78;;;9.68;100.00
75933;BME280;64803;52.356;5.310;2023-04-01T07:24:13;99849.09;;;9.68;100.00
75933;BME280;64803;52.356;5.310;2023-04-01T07:26:53;99854.25;;;9.69;100.00
75933;BME280;64803;52.356;5.310;2023-04-01T07:29:22;99857.97;;;9.68;100.00
75933;BME280;64803;52.356;5.310;2023-04-01T07:32:17;99864.97;;;9.69;100.00
75933;BME280;64803;52.356;5.310;2023-04-01T07:34:54;99868.28;;;9.71;100.00
75933;BME280;64803;52.356;5.310;2023-04-01T07:37:47;99868.53;;;9.76;100.00
75933;BME280;64803;52.356;5.310;2023-04-01T07:40:32;99873.28;;;9.74;100.00
75933;BME280;64803;52.356;5.310;2023-04-01T07:43:26;99887.94;;;9.78;100.00
75933;BME280;64803;52.356;5.310;2023-04-01T07:49:04;99883.41;;;9.79;100.00
75933;BME280;64803;52.356;5.310;2023-04-01T07:51:45;99888.78;;;9.79;100.00
75933;BME280;64803;52.356;5.310;2023-04-01T08:00:00;99898.09;;;9.83;100.00
75933;BME280;64803;52.356;5.310;2023-04-01T08:06:06;99912.56;;;9.88;100.00
75933;BME280;64803;52.356;5.310;2023-04-01T08:18:50;99931.56;;;9.93;100.00
75933;BME280;64803;52.356;5.310;2023-04-01T08:21:40;99934.06;;;9.95;100.00
75933;BME280;64803;52.356;5.310;2023-04-01T08:24:25;99939.84;;;9.98;100.00
75933;BME280;64803;52.356;5.310;2023-04-01T08:26:55;99951.34;;;9.92;100.00
75933;BME280;64803;52.356;5.310;2023-04-01T08:29:46;99950.97;;;9.95;100.00
75933;BME280;64803;52.356;5.310;2023-04-01T08:32:32;99956.91;;;9.91;100.00
75933;BME280;64803;52.356;5.310;2023-04-01T08:35:17;99963.78;;;10.00;100.00
75933;BME280;64803;52.356;5.310;2023-04-01T08:37:48;99960.47;;;9.98;100.00
75933;BME280;64803;52.356;5.310;2023-04-01T08:43:37;99961.91;;;10.22;100.00
75933;BME280;64803;52.356;5.310;2023-04-01T08:46:39;99972.38;;;10.44;100.00
75933;BME280;64803;52.356;5.310;2023-04-01T08:52:36;99981.19;;;10.79;100.00
75933;BME280;64803;52.356;5.310;2023-04-01T08:55:29;99982.31;;;10.57;100.00
75933;BME280;64803;52.356;5.310;2023-04-01T08:58:20;99989.38;;;10.64;100.00
75933;BME280;64803;52.356;5.310;2023-04-01T09:01:23;99994.34;;;10.67;100.00
75933;BME280;64803;52.356;5.310;2023-04-01T09:04:05;99992.91;;;10.65;100.00
75933;BME280;64803;52.356;5.310;2023-04-01T09:07:05;100006.00;;;10.81;100.00
75933;BME280;64803;52.356;5.310;2023-04-01T09:12:50;100010.00;;;10.98;100.00
75933;BME280;64803;52.356;5.310;2023-04-01T09:21:01;100027.97;;;11.04;100.00
75933;BME280;64803;52.356;5.310;2023-04-01T09:27:02;100019.28;;;11.02;100.00
75933;BME280;64803;52.356;5.310;2023-04-01T09:35:42;100041.81;;;11.01;100.00
75933;BME280;64803;52.356;5.310;2023-04-01T09:40:56;100045.38;;;11.14;100.00
75933;BME280;64803;52.356;5.310;2023-04-01T09:44:01;100038.47;;;10.86;100.00
75933;BME280;64803;52.356;5.310;2023-04-01T09:49:43;100059.44;;;10.76;100.00
75933;BME280;64803;52.356;5.310;2023-04-01T09:55:06;100065.03;;;10.74;100.00
75933;BME280;64803;52.356;5.310;2023-04-01T10:07:14;100082.41;;;10.78;100.00
75933;BME280;64803;52.356;5.310;2023-04-01T10:09:55;100089.13;;;11.02;100.00
75933;BME280;64803;52.356;5.310;2023-04-01T10:21:22;100094.78;;;10.73;100.00
75933;BME280;64803;52.356;5.310;2023-04-01T10:27:06;100103.84;;;11.06;100.00
75933;BME280;64803;52.356;5.310;2023-04-01T10:30:19;100103.72;;;11.27;100.00
75933;BME280;64803;52.356;5.310;2023-04-01T10:41:49;100107.50;;;11.39;100.00
75933;BME280;64803;52.356;5.310;2023-04-01T10:51:04;100123.75;;;11.65;100.00
75933;BME280;64803;52.356;5.310;2023-04-01T10:56:58;100125.69;;;11.97;100.00
75933;BME280;64803;52.356;5.310;2023-04-01T11:03:43;100119.59;;;11.63;100.00
75933;BME280;64803;52.356;5.310;2023-04-01T11:25:29;100157.88;;;10.90;100.00
75933;BME280;64803;52.356;5.310;2023-04-01T11:36:57;100179.66;;;10.46;100.00
75933;BME280;64803;52.356;5.310;2023-04-01T11:42:33;100194.25;;;10.37;100.00
75933;BME280;64803;52.356;5.310;2023-04-01T11:48:24;100193.28;;;10.45;100.00
75933;BME280;64803;52.356;5.310;2023-04-01T11:51:10;100199.16;;;10.55;100.00
75933;BME280;64803;52.356;5.310;2023-04-01T11:54:31;100206.56;;;10.74;100.00
75933;BME280;64803;52.356;5.310;2023-04-01T12:13:04;100226.19;;;11.36;100.00
75933;BME280;64803;52.356;5.310;2023-04-01T12:21:28;100247.47;;;11.03;100.00
75933;BME280;64803;52.356;5.310;2023-04-01T12:24:29;100251.19;;;11.02;100.00
75933;BME280;64803;52.356;5.310;2023-04-01T12:27:20;100243.84;;;10.90;100.00
75933;BME280;64803;52.356;5.310;2023-04-01T12:35:43;100263.88;;;10.87;100.00
75933;BME280;64803;52.356;5.310;2023-04-01T12:47:00;100284.44;;;10.53;100.00
75933;BME280;64803;52.356;5.310;2023-04-01T13:06:38;100297.25;;;10.36;100.00
75933;BME280;64803;52.356;5.310;2023-04-01T13:09:25;100312.00;;;10.26;100.00
75933;BME280;64803;52.356;5.310;2023-04-01T13:17:46;100312.44;;;10.29;100.00
75933;BME280;64803;52.356;5.310;2023-04-01T13:25:51;100328.63;;;10.36;100.00
75933;BME280;64803;52.356;5.310;2023-04-01T13:28:29;100334.38;;;10.33;100.00
75933;BME280;64803;52.356;5.310;2023-04-01T13:31:29;100330.09;;;10.38;100.00
75933;BME280;64803;52.356;5.310;2023-04-01T13:40:21;100353.19;;;10.54;100.00
75933;BME280;64803;52.356;5.310;2023-04-01T13:42:27;100350.03;;;10.65;100.00
75933;BME280;64803;52.356;5.310;2023-04-01T13:48:04;100358.41;;;10.76;100.00
75933;BME280;64803;52.356;5.310;2023-04-01T13:56:35;100369.47;;;10.67;100.00
75933;BME280;64803;52.356;5.310;2023-04-01T13:59:16;100375.09;;;10.72;100.00
75933;BME280;64803;52.356;5.310;2023-04-01T14:02:18;100380.94;;;10.61;100.00
75933;BME280;64803;52.356;5.310;2023-04-01T14:05:15;100393.47;;;10.54;100.00
75933;BME280;64803;52.356;5.310;2023-04-01T14:08:08;100360.34;;;10.47;100.00
75933;BME280;64803;52.356;5.310;2023-04-01T14:17:02;100403.09;;;10.63;100.00
75933;BME280;64803;52.356;5.310;2023-04-01T14:22:37;100418.94;;;10.58;100.00
75933;BME280;64803;52.356;5.310;2023-04-01T14:25:32;100430.41;;;10.52;100.00
75933;BME280;64803;52.356;5.310;2023-04-01T14:39:56;100452.66;;;10.16;100.00
75933;BME280;64803;52.356;5.310;2023-04-01T14:48:23;100470.69;;;10.23;100.00
75933;BME280;64803;52.356;5.310;2023-04-01T14:50:53;100473.00;;;10.26;100.00
75933;BME280;64803;52.356;5.310;2023-04-01T14:53:26;100476.06;;;10.23;100.00
75933;BME280;64803;52.356;5.310;2023-04-01T14:55:55;100491.25;;;10.15;100.00
75933;BME280;64803;52.356;5.310;2023-04-01T14:58:23;100482.94;;;10.02;100.00
75933;BME280;64803;52.356;5.310;2023-04-01T15:01:00;100487.97;;;10.05;100.00
75933;BME280;64803;52.356;5.310;2023-04-01T15:04:07;100504.78;;;9.99;100.00
75933;BME280;64803;52.356;5.310;2023-04-01T15:09:38;100507.19;;;9.94;100.00
75933;BME280;64803;52.356;5.310;2023-04-01T15:12:16;100524.31;;;9.93;100.00
75933;BME280;64803;52.356;5.310;2023-04-01T15:15:09;100516.25;;;9.93;100.00
75933;BME280;64803;52.356;5.310;2023-04-01T15:29:32;100550.28;;;9.93;100.00
75933;BME280;64803;52.356;5.310;2023-04-01T15:35:27;100563.97;;;9.98;100.00
75933;BME280;64803;52.356;5.310;2023-04-01T15:38:02;100566.56;;;9.91;100.00
75933;BME280;64803;52.356;5.310;2023-04-01T15:40:43;100558.88;;;9.88;100.00
75933;BME280;64803;52.356;5.310;2023-04-01T15:54:27;100600.03;;;9.73;100.00
75933;BME280;64803;52.356;5.310;2023-04-01T15:57:28;100606.13;;;9.67;100.00
75933;BME280;64803;52.356;5.310;2023-04-01T16:16:17;100656.38;;;9.42;100.00
75933;BME280;64803;52.356;5.310;2023-04-01T16:23:53;100673.13;;;9.44;100.00
75933;BME280;64803;52.356;5.310;2023-04-01T16:26:50;100679.97;;;9.47;100.00
75933;BME280;64803;52.356;5.310;2023-04-01T16:32:41;100690.28;;;9.27;100.00
75933;BME280;64803;52.356;5.310;2023-04-01T16:35:24;100689.78;;;9.24;100.00
75933;BME280;64803;52.356;5.310;2023-04-01T16:38:05;100695.97;;;9.24;100.00
75933;BME280;64803;52.356;5.310;2023-04-01T16:40:47;100700.50;;;9.24;100.00
75933;BME280;64803;52.356;5.310;2023-04-01T16:43:24;100715.44;;;9.18;100.00
75933;BME280;64803;52.356;5.310;2023-04-01T16:52:13;100731.69;;;9.17;100.00
75933;BME280;64803;52.356;5.310;2023-04-01T16:54:51;100737.53;;;9.12;100.00
75933;BME280;64803;52.356;5.310;2023-04-01T17:00:17;100751.28;;;9.09;100.00
75933;BME280;64803;52.356;5.310;2023-04-01T17:11:02;100765.00;;;8.98;100.00
75933;BME280;64803;52.356;5.310;2023-04-01T17:13:43;100778.25;;;8.91;100.00
75933;BME280;64803;52.356;5.310;2023-04-01T17:16:32;100785.13;;;8.86;100.00
75933;BME280;64803;52.356;5.310;2023-04-01T17:21:57;100786.63;;;8.88;100.00
75933;BME280;64803;52.356;5.310;2023-04-01T17:24:43;100804.53;;;8.88;100.00
75933;BME280;64803;52.356;5.310;2023-04-01T17:27:24;100799.69;;;8.91;100.00
75933;BME280;64803;52.356;5.310;2023-04-01T17:32:43;100812.91;;;8.93;100.00
75933;BME280;64803;52.356;5.310;2023-04-01T17:35:31;100834.50;;;8.83;100.00
75933;BME280;64803;52.356;5.310;2023-04-01T17:43:45;100848.22;;;8.72;100.00
75933;BME280;64803;52.356;5.310;2023-04-01T17:52:03;100868.94;;;8.70;100.00
75933;BME280;64803;52.356;5.310;2023-04-01T17:54:38;100881.81;;;8.67;100.00
75933;BME280;64803;52.356;5.310;2023-04-01T17:57:34;100878.34;;;8.66;100.00
75933;BME280;64803;52.356;5.310;2023-04-01T18:00:28;100890.03;;;8.65;100.00
75933;BME280;64803;52.356;5.310;2023-04-01T18:08:25;100905.06;;;8.50;100.00
75933;BME280;64803;52.356;5.310;2023-04-01T18:11:25;100911.91;;;8.45;100.00
75933;BME280;64803;52.356;5.310;2023-04-01T18:13:58;100924.25;;;8.38;100.00
75933;BME280;64803;52.356;5.310;2023-04-01T18:16:37;100931.88;;;8.25;100.00
75933;BME280;64803;52.356;5.310;2023-04-01T18:19:25;100937.91;;;8.27;100.00
75933;BME280;64803;52.356;5.310;2023-04-01T18:22:21;100937.00;;;8.18;100.00
75933;BME280;64803;52.356;5.310;2023-04-01T18:27:17;100966.06;;;8.13;100.00
75933;BME280;64803;52.356;5.310;2023-04-01T18:29:51;100966.91;;;8.14;100.00
75933;BME280;64803;52.356;5.310;2023-04-01T18:32:31;100972.91;;;8.08;100.00
75933;BME280;64803;52.356;5.310;2023-04-01T18:40:43;100998.31;;;8.04;100.00
75933;BME280;64803;52.356;5.310;2023-04-01T18:43:26;101003.94;;;8.00;100.00
75933;BME280;64803;52.356;5.310;2023-04-01T18:46:03;101010.13;;;8.01;100.00
75933;BME280;64803;52.356;5.310;2023-04-01T18:48:51;101021.69;;;8.02;100.00
75933;BME280;64803;52.356;5.310;2023-04-01T18:51:33;101021.97;;;7.98;100.00
75933;BME280;64803;52.356;5.310;2023-04-01T18:54:27;101028.00;;;8.00;100.00
75933;BME280;64803;52.356;5.310;2023-04-01T18:57:12;101031.00;;;7.97;100.00
75933;BME280;64803;52.356;5.310;2023-04-01T19:00:03;101048.44;;;8.02;100.00
75933;BME280;64803;52.356;5.310;2023-04-01T19:02:37;101061.72;;;7.93;100.00
75933;BME280;64803;52.356;5.310;2023-04-01T19:05:23;101059.19;;;7.92;100.00
75933;BME280;64803;52.356;5.310;2023-04-01T19:07:53;101070.22;;;7.89;100.00
75933;BME280;64803;52.356;5.310;2023-04-01T19:10:31;101064.34;;;7.85;100.00
75933;BME280;64803;52.356;5.310;2023-04-01T19:16:12;101086.03;;;7.82;100.00
75933;BME280;64803;52.356;5.310;2023-04-01T19:19:07;101093.91;;;7.84;100.00
75933;BME280;64803;52.356;5.310;2023-04-01T19:34:57;101129.63;;;7.65;100.00
75933;BME280;64803;52.356;5.310;2023-04-01T19:37:50;101139.13;;;7.60;100.00
75933;BME280;64803;52.356;5.310;2023-04-01T19:43:44;101149.13;;;7.58;100.00
75933;BME280;64803;52.356;5.310;2023-04-01T19:51:31;101155.84;;;7.44;100.00
75933;BME280;64803;52.356;5.310;2023-04-01T19:59:34;101183.84;;;7.40;100.00
75933;BME280;64803;52.356;5.310;2023-04-01T20:04:44;101203.66;;;7.38;100.00
75933;BME280;64803;52.356;5.310;2023-04-01T20:07:37;101198.47;;;7.36;100.00
75933;BME280;64803;52.356;5.310;2023-04-01T20:10:10;101213.09;;;7.32;100.00
75933;BME280;64803;52.356;5.310;2023-04-01T20:12:50;101207.38;;;7.27;100.00
75933;BME280;64803;52.356;5.310;2023-04-01T20:15:33;101225.09;;;7.28;100.00
75933;BME280;64803;52.356;5.310;2023-04-01T20:18:23;101230.03;;;7.23;100.00
75933;BME280;64803;52.356;5.310;2023-04-01T20:21:03;101237.06;;;7.24;100.00
75933;BME280;64803;52.356;5.310;2023-04-01T20:23:41;101242.16;;;7.18;100.00
75933;BME280;64803;52.356;5.310;2023-04-01T20:26:12;101235.88;;;7.09;100.00
75933;BME280;64803;52.356;5.310;2023-04-01T20:28:44;101252.44;;;7.13;100.00
75933;BME280;64803;52.356;5.310;2023-04-01T20:31:25;101249.22;;;7.09;100.00
75933;BME280;64803;52.356;5.310;2023-04-01T20:50:04;101308.72;;;6.92;100.00
75933;BME280;64803;52.356;5.310;2023-04-01T20:53:11;101317.97;;;6.88;100.00
75933;BME280;64803;52.356;5.310;2023-04-01T21:07:26;101334.00;;;6.78;100.00
75933;BME280;64803;52.356;5.310;2023-04-01T21:11:01;101347.47;;;6.77;100.00
75933;BME280;64803;52.356;5.310;2023-04-01T21:35:50;101392.97;;;6.66;100.00
75933;BME280;64803;52.356;5.310;2023-04-01T21:45:04;101420.25;;;6.60;100.00